Latest Weather Observations for Century Mine

IDQ60801

Issued at 5:32 pm EST Wednesday 27 July 2016 (issued every 30 minutes, with the page automatically refreshed every 10 minutes)

About weather observations | Map of weather stations | Latest weather observations for QLD | Other Formats
Station Details ID: 029167 Name: CENTURY MINE Lat: -18.76 Lon: 138.71 Height: 126.8 m
Data from the previous 72 hours. | See also: Recent months at Century Mine
Date/Time
EST
Temp
°C
App
Temp
°C
Dew
Point
°C
Rel
Hum
%
Delta-T
°C
Wind Press
QNH
hPa
Press
MSL
hPa
Rain since
9am
mm
Dir  Spd
km/h
Gust
km/h
Spd
kts
Gust
kts
27/05:30pm 26.0 20.6 -4.5 13 13.1 SE 15 24 8 13 1017.6 1017.2 0.0
27/05:00pm 26.6 20.3 -4.0 13 13.3 SE 20 32 11 17 1017.3 1016.9 0.0
27/04:30pm 26.9 21.2 -3.8 13 13.5 SE 17 30 9 16 1017.0 1016.6 0.0
27/04:00pm 27.0 21.3 -3.7 13 13.5 SE 17 28 9 15 1017.0 1016.6 0.0
27/03:30pm 26.9 20.8 -3.8 13 13.5 SE 19 35 10 19 1017.3 1016.9 0.0
27/03:00pm 26.8 20.5 -3.9 13 13.4 SSE 20 32 11 17 1017.4 1017.0 0.0
27/02:30pm 26.4 20.6 -4.2 13 13.3 SE 17 26 9 14 1017.8 1017.4 0.0
27/02:00pm 26.5 20.5 -3.1 14 13.1 SSE 19 33 10 18 1018.2 1017.8 0.0
27/01:30pm 26.0 19.9 -2.6 15 12.7 SSE 20 35 11 19 1018.8 1018.5 0.0
27/01:00pm 26.0 20.6 -1.7 16 12.5 SE 17 28 9 15 1019.1 1018.8 0.0
27/12:30pm 25.8 19.9 -1.1 17 12.3 SSE 20 32 11 17 1019.5 1019.2 0.0
27/12:00pm 25.1 19.0 -2.5 16 12.2 SSE 20 32 11 17 1020.0 1019.6 0.0
27/11:30am 23.8 18.0 -1.2 19 11.2 SSE 19 32 10 17 1020.5 1020.1 0.0
27/11:00am 23.4 17.7 0.5 22 10.5 SE 20 30 11 16 1020.7 1020.3 0.0
27/10:30am 22.2 16.5 0.7 24 9.9 SE 20 33 11 18 1021.1 1020.7 0.0
27/10:00am 21.3 15.2 0.5 25 9.4 SSE 22 35 12 19 1021.1 1020.7 0.0
27/09:30am 20.1 15.0 0.5 27 8.8 SSE 17 28 9 15 1021.1 1020.7 0.0
27/09:00am 18.6 13.6 1.2 31 7.8 S 17 24 9 13 1020.8 1020.4 0.0
27/08:30am 17.5 13.0 1.9 35 7.1 S 15 24 8 13 1020.5 1020.1 0.0
27/08:00am 16.4 12.3 2.1 38 6.4 S 13 24 7 13 1020.1 1019.7 0.0
27/07:30am 15.1 11.4 2.3 42 5.7 S 11 15 6 8 1019.8 1019.5 0.0
27/07:00am 14.6 11.3 2.2 43 5.5 S 9 13 5 7 1019.7 1019.4 0.0
27/06:30am 14.6 11.8 1.8 42 5.6 S 6 11 3 6 1019.3 1019.0 0.0
27/06:00am 15.0 12.1 1.5 40 5.9 S 6 11 3 6 1018.9 1018.6 0.0
27/05:30am 15.4 12.3 1.2 38 6.2 S 7 13 4 7 1018.6 1018.3 0.0
27/05:00am 15.5 12.0 1.3 38 6.2 S 9 13 5 7 1018.5 1018.2 0.0
27/04:30am 15.7 12.6 1.1 37 6.4 S 7 11 4 6 1018.4 1018.1 0.0
27/04:00am 15.9 12.7 0.5 35 6.7 S 7 13 4 7 1018.3 1017.9 0.0
27/03:30am 17.0 13.4 0.6 33 7.2 S 9 15 5 8 1018.3 1017.9 0.0
27/03:00am 17.0 13.4 0.6 33 7.2 S 9 13 5 7 1018.2 1017.8 0.0
27/02:30am 17.2 13.2 0.4 32 7.3 S 11 15 6 8 1018.2 1017.8 0.0
27/02:00am 17.3 13.7 0.5 32 7.4 S 9 13 5 7 1018.5 1018.2 0.0
27/01:30am 17.7 14.1 0.8 32 7.5 S 9 13 5 7 1018.6 1018.3 0.0
27/01:00am 17.6 15.2 -0.2 30 7.7 S 2 7 1 4 1018.6 1018.3 0.0
27/12:30am 18.8 15.2 0.4 29 8.2 SSW 9 15 5 8 1018.5 1018.2 0.0
27/12:00am 18.8 15.5 -0.1 28 8.3 SSW 7 11 4 6 1018.6 1018.3 0.0
 
Date/Time
EST
Temp
°C
App
Temp
°C
Dew
Point
°C
Rel
Hum
%
Delta-T
°C
Wind Press
QNH
hPa
Press
MSL
hPa
Rain since
9am
mm
Dir  Spd
km/h
Gust
km/h
Spd
kts
Gust
kts
26/11:30pm 19.5 15.4 0.0 27 8.6 S 11 17 6 9 1018.7 1018.4 0.0
26/11:00pm 20.3 15.9 0.2 26 9.0 S 13 20 7 11 1018.6 1018.3 0.0
26/10:30pm 20.8 16.4 0.6 26 9.1 S 13 20 7 11 1018.5 1018.2 0.0
26/10:00pm 21.6 16.5 0.8 25 9.5 S 17 28 9 15 1018.2 1017.8 0.0
26/09:30pm 22.1 17.0 0.6 24 9.8 S 17 28 9 15 1018.0 1017.6 0.0
26/09:00pm 22.8 17.6 0.0 22 10.4 S 17 26 9 14 1017.8 1017.4 0.0
26/08:30pm 23.6 17.4 0.0 21 10.8 S 22 35 12 19 1017.2 1016.8 0.0
26/08:00pm 24.1 19.5 1.7 23 10.6 SSW 15 22 8 12 1016.6 1016.2 0.0
26/07:30pm 23.6 20.5 3.5 27 9.8 SSW 9 17 5 9 1016.0 1015.6 0.0
26/07:00pm 24.3 21.2 3.6 26 10.2 SSW 9 13 5 7 1015.5 1015.1 0.0
26/06:30pm 25.7 22.1 3.0 23 11.2 SSW 11 17 6 9 1015.2 1014.8 0.0
26/06:00pm 27.5 23.7 3.9 22 11.9 SSW 13 20 7 11 1015.0 1014.6 0.0
26/05:30pm 28.6 24.7 3.5 20 12.7 SSW 13 20 7 11 1014.7 1014.3 0.0
26/05:00pm 29.1 25.3 3.9 20 12.9 S 13 24 7 13 1014.5 1014.1 0.0
26/04:30pm 29.3 26.0 4.7 21 12.7 SSE 11 17 6 9 1014.3 1013.9 0.0
26/04:00pm 29.9 27.5 5.2 21 13.0 SSW 7 15 4 8 1014.3 1013.9 0.0
26/03:30pm 29.7 26.9 5.1 21 12.9 SSE 9 17 5 9 1014.5 1014.1 0.0
26/03:00pm 29.3 26.4 4.7 21 12.7 ESE 9 20 5 11 1014.6 1014.2 0.0
26/02:30pm 29.0 26.5 4.5 21 12.6 S 7 13 4 7 1014.9 1014.5 0.0
26/02:00pm 29.4 26.9 4.8 21 12.8 ENE 7 17 4 9 1015.3 1014.9 0.0
26/01:30pm 28.0 24.5 3.7 21 12.3 ESE 11 20 6 11 1015.6 1015.2 0.0
26/01:00pm 27.7 24.3 4.1 22 12.0 SE 11 15 6 8 1016.1 1015.7 0.0
26/12:30pm 27.5 24.3 3.2 21 12.1 ESE 9 20 5 11 1016.6 1016.2 0.0
26/12:00pm 26.0 22.4 2.7 22 11.4 ESE 11 20 6 11 1017.1 1016.7 0.0
26/11:30am 25.0 21.2 1.8 22 11.1 E 11 19 6 10 1017.7 1017.3 0.0
26/11:00am 24.1 20.4 2.3 24 10.4 ESE 11 19 6 10 1018.3 1017.9 0.0
26/10:30am 23.1 19.0 2.0 25 10.0 SE 13 20 7 11 1018.6 1018.3 0.0
26/10:00am 21.6 17.0 1.8 27 9.2 SE 15 22 8 12 1018.7 1018.4 0.0
26/09:30am 21.2 16.7 2.0 28 9.0 SE 15 24 8 13 1018.5 1018.2 0.0
26/09:00am 19.4 16.2 3.2 34 7.6 S 9 15 5 8 1018.5 1018.2 0.0
26/08:30am 17.5 13.7 4.1 41 6.3 S 13 19 7 10 1018.3 1017.9 0.0
26/08:00am 15.6 12.7 4.6 48 5.2 S 9 13 5 7 1018.1 1017.7 0.0
26/07:30am 14.0 11.0 4.3 52 4.5 S 9 11 5 6 1017.8 1017.4 0.0
26/07:00am 13.7 11.1 4.3 53 4.3 S 7 11 4 6 1017.5 1017.1 0.0
26/06:30am 14.5 11.5 4.2 50 4.8 S 9 11 5 6 1017.3 1016.9 0.0
26/06:00am 14.9 12.0 4.6 50 4.8 S 9 11 5 6 1016.9 1016.5 0.0
26/05:30am 14.8 11.9 4.8 51 4.7 S 9 11 5 6 1016.7 1016.3 0.0
26/05:00am 15.2 12.3 4.9 50 4.9 S 9 11 5 6 1016.5 1016.1 0.0
26/04:30am 15.9 13.0 4.9 48 5.2 S 9 13 5 7 1016.4 1016.0 0.0
26/04:00am 16.1 13.6 4.8 47 5.4 S 7 9 4 5 1016.3 1015.9 0.0
26/03:30am 16.6 13.7 4.9 46 5.6 S 9 11 5 6 1016.4 1016.0 0.0
26/03:00am 16.8 13.9 4.8 45 5.7 S 9 11 5 6 1016.4 1016.0 0.0
26/02:30am 17.3 14.5 5.3 45 5.8 S 9 13 5 7 1016.4 1016.0 0.0
26/02:00am 16.9 14.1 5.2 46 5.6 S 9 11 5 6 1016.6 1016.2 0.0
26/01:30am 17.1 14.4 5.4 46 5.7 S 9 11 5 6 1016.7 1016.3 0.0
26/01:00am 17.4 14.7 5.4 45 5.8 S 9 11 5 6 1016.9 1016.5 0.0
26/12:30am 17.9 15.2 5.5 44 6.1 S 9 11 5 6 1016.9 1016.5 0.0
26/12:00am 17.5 14.8 5.8 46 5.7 S 9 13 5 7 1017.1 1016.7 0.0
 
Date/Time
EST
Temp
°C
App
Temp
°C
Dew
Point
°C
Rel
Hum
%
Delta-T
°C
Wind Press
QNH
hPa
Press
MSL
hPa
Rain since
9am
mm
Dir  Spd
km/h
Gust
km/h
Spd
kts
Gust
kts
25/11:30pm 17.2 14.8 5.2 45 5.8 SSE 7 9 4 5 1017.3 1016.9 0.0
25/11:00pm 17.4 14.9 5.0 44 6.0 SSE 7 9 4 5 1017.4 1017.0 0.0
25/10:30pm 19.7 17.2 4.6 37 7.3 SE 7 11 4 6 1017.3 1016.9 0.0
25/10:00pm 20.3 17.4 4.8 36 7.6 SE 9 11 5 6 1017.1 1016.7 0.0
25/09:30pm 20.6 17.7 4.6 35 7.8 SE 9 11 5 6 1016.9 1016.5 0.0
25/09:00pm 21.1 18.6 4.6 34 8.1 SE 7 11 4 6 1016.7 1016.3 0.0
25/08:30pm 21.6 19.1 4.7 33 8.3 SE 7 9 4 5 1016.5 1016.1 0.0
25/08:00pm 22.4 19.9 4.5 31 8.8 SE 7 9 4 5 1016.3 1015.9 0.0
25/07:30pm 23.4 20.8 4.4 29 9.4 ESE 7 11 4 6 1015.8 1015.4 0.0
25/07:00pm 24.2 21.5 3.5 26 10.2 SE 7 11 4 6 1015.5 1015.1 0.0
25/06:30pm 26.2 23.1 3.5 23 11.3 SE 9 15 5 8 1015.2 1014.8 0.0
25/06:00pm 27.8 24.3 3.5 21 12.2 SE 11 15 6 8 1014.9 1014.5 0.0
25/05:30pm 28.7 24.8 3.5 20 12.7 ESE 13 20 7 11 1014.7 1014.3 0.0
25/05:00pm 29.1 24.8 3.1 19 13.1 ESE 15 20 8 11 1014.6 1014.2 0.0
25/04:30pm 29.6 25.6 2.8 18 13.5 SE 13 20 7 11 1014.5 1014.1 0.0
25/04:00pm 29.9 26.3 3.0 18 13.6 SE 11 20 6 11 1014.5 1014.1 0.0
25/03:30pm 30.1 26.2 3.2 18 13.7 SSE 13 22 7 12 1014.6 1014.2 0.0
25/03:00pm 29.7 25.7 2.9 18 13.5 ESE 13 20 7 11 1014.9 1014.5 0.0
25/02:30pm 29.8 26.3 3.7 19 13.3 SE 11 17 6 9 1015.2 1014.8 0.0
25/02:00pm 28.9 24.6 3.0 19 13.0 SSE 15 26 8 14 1015.8 1015.4 0.0
25/01:30pm 28.1 24.0 2.3 19 12.7 SE 13 26 7 14 1016.2 1015.8 0.0
25/01:00pm 27.5 22.9 1.8 19 12.5 SE 15 26 8 14 1016.7 1016.3 0.0
25/12:30pm 27.4 22.8 1.8 19 12.5 SE 15 26 8 14 1017.1 1016.7 0.0
25/12:00pm 27.5 22.7 2.6 20 12.3 ESE 17 28 9 15 1017.6 1017.2 0.0
25/11:30am 26.0 21.5 2.0 21 11.6 SE 15 24 8 13 1018.0 1017.6 0.0
25/11:00am 25.1 20.7 2.5 23 10.9 SE 15 26 8 14 1018.3 1017.9 0.0
25/10:30am 24.4 19.2 2.5 24 10.6 SE 19 33 10 18 1018.5 1018.2 0.0
25/10:00am 23.5 17.7 2.4 25 10.1 ESE 22 32 12 17 1018.4 1018.1 0.0
25/09:30am 22.7 17.5 2.2 26 9.7 SE 19 30 10 16 1018.4 1018.1 0.0
25/09:00am 21.9 16.8 3.1 29 9.0 SE 19 30 10 16 1018.1 1017.7 0.0
25/08:30am 20.6 16.3 3.3 32 8.2 SE 15 24 8 13 1017.8 1017.4 0.0
25/08:00am 18.9 15.7 5.0 40 6.8 SSE 11 17 6 9 1017.7 1017.3 0.0
25/07:30am 16.6 14.0 5.9 49 5.2 SSE 9 11 5 6 1017.4 1017.0 0.0
25/07:00am 16.1 13.8 5.7 50 5.0 SSE 7 9 4 5 1017.2 1016.8 0.0
25/06:30am 16.4 14.2 6.2 51 5.0 SSE 7 9 4 5 1016.8 1016.4 0.0
25/06:00am 17.5 15.2 5.8 46 5.7 SE 7 9 4 5 1016.4 1016.0 0.0
25/05:30am 18.8 16.2 6.3 44 6.2 SE 9 13 5 7 1016.0 1015.6 0.0
25/05:00am 19.2 16.6 6.3 43 6.4 SE 9 13 5 7 1016.0 1015.6 0.0
25/04:30am 20.2 17.7 6.5 41 6.9 SE 9 15 5 8 1016.0 1015.6 0.0
25/04:00am 20.9 18.4 6.4 39 7.3 SE 9 17 5 9 1015.9 1015.5 0.0
25/03:30am 21.6 18.5 7.1 39 7.5 SE 13 20 7 11 1015.9 1015.5 0.0
25/03:00am 21.7 18.7 7.9 41 7.2 SSE 13 20 7 11 1015.9 1015.5 0.0
25/02:30am 21.7 19.2 9.6 46 6.5 SSE 13 24 7 13 1016.0 1015.6 0.0
25/02:00am 20.9 18.9 10.1 50 5.9 S 11 15 6 8 1015.9 1015.5 0.0
25/01:30am 21.0 19.4 10.2 50 5.9 S 9 13 5 7 1015.9 1015.5 0.0
25/01:00am 21.6 20.1 10.4 49 6.1 S 9 13 5 7 1015.9 1015.5 0.0
25/12:30am 21.2 19.6 10.1 49 6.0 SSW 9 11 5 6 1015.8 1015.4 0.0
25/12:00am 20.5 19.0 10.6 53 5.4 SSE 9 11 5 6 1015.7 1015.3 0.0
 
Date/Time
EST
Temp
°C
App
Temp
°C
Dew
Point
°C
Rel
Hum
%
Delta-T
°C
Wind Press
QNH
hPa
Press
MSL
hPa
Rain since
9am
mm
Dir  Spd
km/h
Gust
km/h
Spd
kts
Gust
kts
24/11:30pm 18.4 17.2 10.3 59 4.4 S 7 9 4 5 1015.7 1015.3 0.0
24/11:00pm 19.2 18.2 10.2 56 4.8 S 6 7 3 4 1015.8 1015.4 0.0
24/10:30pm 20.0 18.9 10.1 53 5.4 SSW 6 7 3 4 1015.8 1015.4 0.0
24/10:00pm 20.8 19.9 10.6 52 5.6 S 6 9 3 5 1015.8 1015.4 0.0
24/09:30pm 20.1 19.0 10.5 54 5.2 S 7 9 4 5 1015.7 1015.3 0.0
24/09:00pm 20.4 19.3 10.5 53 5.4 SSE 7 9 4 5 1015.5 1015.1 0.0
24/08:30pm 21.2 20.2 10.4 50 5.9 SE 6 7 3 4 1015.2 1014.8 0.0
24/08:00pm 22.5 21.4 10.0 45 6.8 E 6 7 3 4 1014.6 1014.2 0.0
24/07:30pm 24.3 23.1 9.5 39 8.1 E 6 7 3 4 1014.3 1013.9 0.0
24/07:00pm 26.3 24.8 9.2 34 9.4 ENE 7 9 4 5 1013.8 1013.4 0.0
24/06:30pm 28.0 26.0 8.8 30 10.6 ENE 9 15 5 8 1013.5 1013.1 0.0
24/06:00pm 29.9 27.2 8.9 27 11.7 E 13 19 7 10 1013.3 1012.9 0.0

Other Formats:

Comma delimited format used in spreadsheet applications
http://www.bom.gov.au/fwo/IDQ60801/IDQ60801.94261.axf

JavaScript Object Notation format (JSON) in row-major order
http://www.bom.gov.au/fwo/IDQ60801/IDQ60801.94261.json